createdAt,value
2019-02-02T00:00:40.129Z,41.70
2019-02-02T00:01:40.113Z,39.80
2019-02-02T00:02:40.236Z,37.20
2019-02-02T00:03:40.153Z,34.60
2019-02-02T00:04:40.091Z,37.90
2019-02-02T00:05:40.056Z,38.70
2019-02-02T00:06:40.068Z,45.30
2019-02-02T00:07:40.054Z,42.50
2019-02-02T00:08:40.041Z,40.60
2019-02-02T00:09:40.079Z,44.60
2019-02-02T00:10:40.035Z,37.20
2019-02-02T00:11:40.072Z,36.70
2019-02-02T00:12:39.985Z,36.20
2019-02-02T00:13:39.992Z,35.40
2019-02-02T00:14:40.012Z,37.20
2019-02-02T00:15:39.976Z,41.30
2019-02-02T00:16:39.945Z,37.70
2019-02-02T00:17:40.104Z,40.30
2019-02-02T00:18:39.936Z,38.90
2019-02-02T00:19:39.903Z,36.80
2019-02-02T00:20:39.915Z,38.40
2019-02-02T00:21:40.040Z,40.50
2019-02-02T00:22:39.880Z,37.10
2019-02-02T00:23:39.864Z,43.20
2019-02-02T00:24:39.985Z,39.50
2019-02-02T00:25:39.877Z,42.60
2019-02-02T00:26:39.841Z,39.50
2019-02-02T00:27:41.486Z,40.10
2019-02-02T00:28:39.867Z,37.30
2019-02-02T00:29:39.809Z,40.00
2019-02-02T00:30:39.823Z,40.00
2019-02-02T00:31:39.797Z,38.80
2019-02-02T00:32:39.836Z,39.20
2019-02-02T00:33:39.767Z,39.50
2019-02-02T00:34:39.787Z,40.00
2019-02-02T00:35:39.767Z,39.90
2019-02-02T00:36:39.760Z,36.60
2019-02-02T00:37:39.725Z,37.50
2019-02-02T00:38:39.796Z,37.40
2019-02-02T00:39:39.756Z,40.50
2019-02-02T00:40:39.682Z,41.50
2019-02-02T00:41:39.822Z,43.20
2019-02-02T00:42:39.669Z,45.00
2019-02-02T00:43:39.651Z,39.70
2019-02-02T00:44:39.659Z,39.90
2019-02-02T00:45:39.669Z,37.20
2019-02-02T00:46:39.669Z,44.00
2019-02-02T00:47:39.623Z,40.60
2019-02-02T00:48:39.658Z,39.40
2019-02-02T00:49:39.587Z,40.30
2019-02-02T00:50:39.608Z,42.00
2019-02-02T00:51:39.689Z,38.60
2019-02-02T00:52:39.559Z,40.60
2019-02-02T00:53:39.580Z,44.10
2019-02-02T00:54:39.542Z,36.60
2019-02-02T00:55:39.674Z,38.20
2019-02-02T00:56:39.546Z,38.80
2019-02-02T00:57:39.539Z,44.90
2019-02-02T00:58:39.512Z,44.40
2019-02-02T00:59:39.493Z,40.60
2019-02-02T01:00:39.672Z,41.60
2019-02-02T01:01:39.537Z,44.70
2019-02-02T01:02:39.461Z,42.90
2019-02-02T01:03:39.484Z,46.70
2019-02-02T01:04:39.673Z,44.40
2019-02-02T01:05:39.417Z,44.40
2019-02-02T01:06:39.441Z,44.40
2019-02-02T01:07:39.582Z,44.20
2019-02-02T01:08:39.387Z,45.30
2019-02-02T01:09:39.379Z,54.10
2019-02-02T01:10:39.512Z,56.50
2019-02-02T01:11:39.376Z,46.30
2019-02-02T01:12:39.372Z,43.80
2019-02-02T01:13:39.392Z,39.10
2019-02-02T01:14:39.372Z,41.10
2019-02-02T01:15:39.353Z,48.80
2019-02-02T01:16:39.308Z,52.30
2019-02-02T01:17:39.359Z,47.40
2019-02-02T01:18:39.281Z,46.20
2019-02-02T01:19:39.373Z,45.60
2019-02-02T01:20:39.284Z,42.70
2019-02-02T01:21:39.334Z,44.40
2019-02-02T01:22:39.240Z,45.20
2019-02-02T01:23:39.338Z,48.40
2019-02-02T01:24:39.218Z,43.60
2019-02-02T01:25:39.231Z,46.70
2019-02-02T01:26:39.205Z,48.80
2019-02-02T01:27:39.201Z,42.70
2019-02-02T01:28:39.208Z,47.40
2019-02-02T01:29:39.325Z,47.30
2019-02-02T01:30:39.183Z,45.50
2019-02-02T01:31:39.267Z,40.20
2019-02-02T01:32:39.132Z,42.90
2019-02-02T01:33:39.234Z,45.10
2019-02-02T01:34:39.213Z,44.10
2019-02-02T01:35:39.133Z,43.10
2019-02-02T01:36:39.144Z,47.50
2019-02-02T01:37:39.103Z,44.70
2019-02-02T01:38:39.243Z,43.30
2019-02-02T01:39:39.092Z,46.60
2019-02-02T01:40:39.106Z,43.30
2019-02-02T01:41:39.039Z,39.80
2019-02-02T01:42:39.144Z,40.70
2019-02-02T01:43:39.030Z,44.60
2019-02-02T01:44:39.041Z,39.00
2019-02-02T01:45:39.010Z,41.00
2019-02-02T01:46:38.990Z,45.10
2019-02-02T01:47:39.005Z,50.80
2019-02-02T01:48:39.012Z,41.70
2019-02-02T01:49:39.095Z,45.20
2019-02-02T01:50:38.967Z,40.90
2019-02-02T01:51:39.140Z,51.00
2019-02-02T01:52:38.923Z,46.90
2019-02-02T01:53:38.915Z,46.00
2019-02-02T01:54:38.940Z,46.00
2019-02-02T01:55:38.981Z,46.30
2019-02-02T01:56:38.876Z,46.50
2019-02-02T01:57:38.919Z,56.00
2019-02-02T01:58:38.857Z,48.20
2019-02-02T01:59:38.878Z,53.90
2019-02-02T02:00:38.841Z,51.20
2019-02-02T02:01:41.621Z,53.50
2019-02-02T02:02:38.834Z,49.50
2019-02-02T02:03:38.828Z,57.10
2019-02-02T02:04:38.821Z,55.50
2019-02-02T02:05:38.953Z,55.50
2019-02-02T02:06:38.779Z,54.10
2019-02-02T02:07:38.756Z,57.50
2019-02-02T02:08:38.855Z,44.70
2019-02-02T02:09:38.776Z,47.90
2019-02-02T02:10:38.923Z,52.40
2019-02-02T02:11:38.757Z,56.10
2019-02-02T02:12:38.778Z,50.00
2019-02-02T02:13:38.728Z,51.30
2019-02-02T02:14:38.783Z,53.40
2019-02-02T02:15:38.740Z,60.30
2019-02-02T02:16:38.665Z,50.70
2019-02-02T02:17:38.653Z,59.40
2019-02-02T02:18:38.643Z,54.30
2019-02-02T02:19:38.642Z,53.90
2019-02-02T02:20:38.730Z,64.80
2019-02-02T02:21:38.617Z,65.40
2019-02-02T02:22:41.259Z,63.60
2019-02-02T02:23:38.594Z,55.10
2019-02-02T02:24:38.606Z,49.70
2019-02-02T02:25:38.580Z,66.10
2019-02-02T02:26:38.655Z,55.80
2019-02-02T02:27:38.544Z,53.00
2019-02-02T02:28:38.543Z,58.20
2019-02-02T02:29:38.525Z,59.50
2019-02-02T02:30:38.526Z,62.70
2019-02-02T02:31:38.545Z,64.80
2019-02-02T02:32:38.505Z,69.40
2019-02-02T02:33:38.494Z,61.90
2019-02-02T02:34:38.469Z,63.90
2019-02-02T02:35:38.462Z,44.10
2019-02-02T02:36:38.550Z,55.20
2019-02-02T02:37:38.463Z,52.10
2019-02-02T02:38:38.445Z,48.10
2019-02-02T02:39:38.458Z,48.30
2019-02-02T02:40:38.446Z,45.50
2019-02-02T02:41:38.603Z,51.80
2019-02-02T02:42:38.384Z,39.80
2019-02-02T02:43:38.383Z,48.50
2019-02-02T02:44:38.374Z,49.50
2019-02-02T02:45:38.390Z,44.60
2019-02-02T02:46:38.431Z,42.40
2019-02-02T02:47:38.335Z,50.90
2019-02-02T02:48:38.327Z,57.10
2019-02-02T02:49:38.393Z,46.40
2019-02-02T02:50:38.396Z,55.90
2019-02-02T02:51:38.356Z,63.00
2019-02-02T02:52:38.282Z,67.50
2019-02-02T02:53:38.436Z,53.20
2019-02-02T02:54:38.308Z,69.00
2019-02-02T02:55:38.258Z,54.90
2019-02-02T02:56:38.252Z,79.70
2019-02-02T02:57:38.302Z,103.00
2019-02-02T02:58:41.436Z,69.20
2019-02-02T02:59:38.382Z,70.40
2019-02-02T03:00:38.197Z,77.80
2019-02-02T03:01:38.189Z,90.00
2019-02-02T03:02:38.256Z,77.60
2019-02-02T03:03:38.181Z,55.20
2019-02-02T03:04:38.178Z,79.60
2019-02-02T03:05:38.238Z,57.70
2019-02-02T03:06:38.140Z,57.60
2019-02-02T03:07:38.134Z,47.30
2019-02-02T03:08:38.398Z,45.30
2019-02-02T03:09:38.107Z,56.90
2019-02-02T03:10:38.161Z,63.50
2019-02-02T03:11:38.273Z,65.90
2019-02-02T03:12:38.081Z,64.20
2019-02-02T03:13:38.341Z,65.40
2019-02-02T03:14:38.126Z,52.10
2019-02-02T03:15:38.040Z,84.90
2019-02-02T03:16:38.220Z,76.10
2019-02-02T03:17:38.098Z,65.50
2019-02-02T03:18:38.079Z,72.80
2019-02-02T03:19:37.999Z,60.30
2019-02-02T03:20:38.005Z,87.60
2019-02-02T03:21:38.139Z,81.50
2019-02-02T03:22:38.017Z,83.50
2019-02-02T03:23:38.040Z,54.00
2019-02-02T03:24:37.984Z,49.30
2019-02-02T03:25:37.934Z,47.10
2019-02-02T03:26:37.917Z,40.60
2019-02-02T03:27:37.908Z,43.30
2019-02-02T03:28:37.941Z,49.70
2019-02-02T03:29:37.903Z,47.20
2019-02-02T03:30:37.882Z,45.80
2019-02-02T03:31:37.891Z,57.00
2019-02-02T03:32:37.862Z,49.10
2019-02-02T03:33:37.891Z,41.30
2019-02-02T03:34:37.876Z,37.70
2019-02-02T03:35:37.826Z,43.70
2019-02-02T03:36:37.827Z,35.40
2019-02-02T03:37:37.799Z,41.50
2019-02-02T03:38:37.799Z,46.90
2019-02-02T03:39:37.815Z,42.20
2019-02-02T03:40:37.769Z,64.50
2019-02-02T03:41:37.838Z,60.10
2019-02-02T03:42:37.755Z,57.10
2019-02-02T03:43:37.735Z,64.40
2019-02-02T03:44:37.760Z,75.30
2019-02-02T03:45:40.661Z,61.10
2019-02-02T03:46:37.736Z,53.90
2019-02-02T03:47:37.737Z,60.40
2019-02-02T03:48:37.691Z,53.90
2019-02-02T03:49:37.870Z,57.90
2019-02-02T03:50:37.856Z,56.80
2019-02-02T03:51:37.654Z,35.10
2019-02-02T03:52:37.642Z,45.30
2019-02-02T03:53:37.637Z,44.70
2019-02-02T03:54:37.647Z,41.50
2019-02-02T03:55:37.623Z,54.90
2019-02-02T03:56:37.672Z,62.50
2019-02-02T03:57:37.597Z,47.80
2019-02-02T03:58:37.684Z,57.80
2019-02-02T03:59:37.623Z,86.00
2019-02-02T04:00:37.605Z,68.00
2019-02-02T04:01:37.559Z,82.60
2019-02-02T04:02:37.550Z,85.70
2019-02-02T04:03:37.667Z,70.80
2019-02-02T04:04:37.640Z,47.40
2019-02-02T04:05:37.686Z,55.60
2019-02-02T04:06:37.495Z,49.40
2019-02-02T04:07:37.510Z,45.70
2019-02-02T04:08:37.602Z,50.10
2019-02-02T04:09:37.572Z,49.00
2019-02-02T04:10:37.597Z,50.50
2019-02-02T04:11:37.482Z,52.80
2019-02-02T04:12:37.486Z,48.40
2019-02-02T04:13:37.500Z,49.70
2019-02-02T04:14:37.434Z,49.70
2019-02-02T04:15:37.440Z,50.10
2019-02-02T04:16:37.512Z,59.30
2019-02-02T04:17:37.376Z,56.00
2019-02-02T04:18:37.428Z,67.60
2019-02-02T04:19:37.493Z,71.20
2019-02-02T04:20:37.390Z,74.40
2019-02-02T04:21:37.503Z,110.70
2019-02-02T04:22:37.411Z,82.40
2019-02-02T04:23:37.322Z,102.90
2019-02-02T04:24:37.356Z,87.30
2019-02-02T04:25:37.328Z,58.90
2019-02-02T04:26:37.352Z,81.10
2019-02-02T04:27:37.280Z,100.70
2019-02-02T04:28:37.277Z,82.50
2019-02-02T04:29:37.246Z,92.10
2019-02-02T04:30:37.324Z,92.50
2019-02-02T04:31:37.289Z,120.40
2019-02-02T04:32:37.222Z,137.00
2019-02-02T04:33:37.238Z,81.30
2019-02-02T04:34:37.229Z,73.90
2019-02-02T04:35:37.194Z,87.80
2019-02-02T04:36:37.196Z,87.10
2019-02-02T04:37:38.332Z,82.10
2019-02-02T04:38:37.169Z,68.40
2019-02-02T04:39:37.146Z,50.70
2019-02-02T04:40:37.255Z,70.20
2019-02-02T04:41:37.174Z,67.00
2019-02-02T04:42:37.127Z,54.40
2019-02-02T04:43:37.121Z,65.60
2019-02-02T04:44:37.095Z,63.70
2019-02-02T04:45:37.105Z,61.80
2019-02-02T04:46:37.087Z,78.70
2019-02-02T04:47:37.053Z,76.80
2019-02-02T04:48:37.043Z,68.50
2019-02-02T04:49:37.029Z,60.60
2019-02-02T04:50:37.027Z,97.30
2019-02-02T04:51:37.059Z,112.00
2019-02-02T04:52:37.001Z,101.00
2019-02-02T04:53:36.986Z,109.50
2019-02-02T04:54:36.992Z,92.60
2019-02-02T04:55:36.964Z,72.80
2019-02-02T04:56:36.980Z,113.80
2019-02-02T04:57:36.948Z,88.30
2019-02-02T04:58:36.941Z,66.50
2019-02-02T04:59:36.939Z,63.80
2019-02-02T05:00:36.917Z,57.20
2019-02-02T05:01:36.928Z,50.00
2019-02-02T05:02:36.896Z,45.10
2019-02-02T05:03:36.879Z,44.70
2019-02-02T05:04:36.896Z,55.20
2019-02-02T05:05:37.021Z,58.30
2019-02-02T05:06:37.006Z,56.50
2019-02-02T05:07:36.859Z,52.00
2019-02-02T05:08:36.917Z,67.40
2019-02-02T05:09:36.826Z,56.30
2019-02-02T05:10:36.867Z,45.20
2019-02-02T05:11:36.829Z,51.60
2019-02-02T05:12:36.877Z,57.00
2019-02-02T05:13:36.795Z,46.90
2019-02-02T05:14:36.847Z,41.10
2019-02-02T05:15:36.794Z,62.10
2019-02-02T05:16:36.909Z,42.30
2019-02-02T05:17:36.841Z,51.00
2019-02-02T05:18:36.736Z,59.60
2019-02-02T05:19:36.788Z,53.20
2019-02-02T05:20:36.708Z,56.90
2019-02-02T05:21:36.708Z,54.20
2019-02-02T05:22:36.717Z,53.90
2019-02-02T05:23:36.667Z,81.80
2019-02-02T05:24:36.659Z,89.90
2019-02-02T05:25:36.666Z,61.00
2019-02-02T05:26:36.641Z,50.60
2019-02-02T05:27:36.646Z,46.60
2019-02-02T05:28:36.874Z,37.00
2019-02-02T05:29:41.570Z,43.10
2019-02-02T05:30:37.635Z,43.00
2019-02-02T05:31:36.582Z,47.40
2019-02-02T05:32:36.793Z,49.00
2019-02-02T05:33:36.587Z,49.10
2019-02-02T05:34:36.600Z,44.50
2019-02-02T05:35:36.570Z,50.00
2019-02-02T05:36:36.721Z,49.90
2019-02-02T05:37:36.522Z,52.90
2019-02-02T05:38:36.576Z,56.20
2019-02-02T05:39:36.525Z,43.30
2019-02-02T05:40:36.741Z,72.60
2019-02-02T05:41:36.723Z,52.10
2019-02-02T05:42:36.478Z,63.20
2019-02-02T05:43:36.492Z,54.80
2019-02-02T05:44:36.554Z,56.10
2019-02-02T05:45:36.581Z,58.20
2019-02-02T05:46:36.472Z,62.40
2019-02-02T05:47:36.413Z,46.60
2019-02-02T05:48:36.432Z,60.10
2019-02-02T05:49:36.424Z,55.00
2019-02-02T05:50:36.516Z,45.80
2019-02-02T05:51:36.377Z,51.10
2019-02-02T05:52:36.371Z,52.70
2019-02-02T05:53:36.601Z,48.10
2019-02-02T05:54:36.343Z,44.60
2019-02-02T05:55:36.505Z,58.80
2019-02-02T05:56:36.369Z,54.80
2019-02-02T05:57:36.312Z,54.20
2019-02-02T05:58:36.430Z,50.10
2019-02-02T05:59:36.285Z,50.80
2019-02-02T06:00:36.328Z,50.10
2019-02-02T06:01:36.265Z,49.40
2019-02-02T06:02:36.250Z,64.00
2019-02-02T06:03:36.297Z,56.30
2019-02-02T06:04:36.277Z,46.90
2019-02-02T06:05:36.216Z,42.90
2019-02-02T06:06:36.221Z,54.00
2019-02-02T06:07:36.209Z,56.40
2019-02-02T06:08:36.211Z,55.40
2019-02-02T06:09:36.172Z,59.40
2019-02-02T06:10:36.190Z,45.40
2019-02-02T06:11:36.188Z,60.80
2019-02-02T06:12:36.140Z,55.90
2019-02-02T06:13:36.194Z,58.10
2019-02-02T06:14:36.122Z,47.30
2019-02-02T06:15:36.144Z,45.50
2019-02-02T06:16:36.099Z,52.50
2019-02-02T06:17:36.093Z,47.30
2019-02-02T06:18:36.128Z,52.00
2019-02-02T06:19:36.070Z,51.50
2019-02-02T06:20:36.069Z,50.10
2019-02-02T06:21:36.046Z,52.50
2019-02-02T06:22:36.029Z,60.00
2019-02-02T06:23:36.092Z,58.10
2019-02-02T06:24:36.017Z,62.60
2019-02-02T06:25:36.019Z,52.50
2019-02-02T06:26:36.012Z,67.80
2019-02-02T06:27:35.978Z,54.40
2019-02-02T06:28:35.993Z,53.30
2019-02-02T06:29:35.971Z,51.90
2019-02-02T06:30:35.943Z,58.20
2019-02-02T06:31:35.940Z,70.70
2019-02-02T06:32:35.934Z,52.60
2019-02-02T06:33:35.958Z,61.00
2019-02-02T06:34:36.027Z,102.20
2019-02-02T06:35:35.899Z,154.80
2019-02-02T06:36:35.922Z,129.60
2019-02-02T06:37:35.874Z,195.10
2019-02-02T06:38:35.878Z,107.60
2019-02-02T06:39:35.886Z,103.30
2019-02-02T06:40:35.850Z,117.20
2019-02-02T06:41:35.838Z,101.40
2019-02-02T06:42:35.851Z,105.90
2019-02-02T06:43:35.823Z,122.90
2019-02-02T06:44:35.818Z,162.00
2019-02-02T06:45:35.795Z,157.50
2019-02-02T06:46:43.228Z,171.60
2019-02-02T06:47:36.761Z,171.20
2019-02-02T06:48:35.789Z,149.30
2019-02-02T06:49:35.878Z,137.00
2019-02-02T06:50:35.822Z,174.30
2019-02-02T06:51:35.739Z,95.80
2019-02-02T06:52:35.712Z,80.60
2019-02-02T06:53:35.735Z,80.90
2019-02-02T06:54:35.749Z,80.20
2019-02-02T06:55:35.736Z,75.30
2019-02-02T06:56:35.678Z,85.00
2019-02-02T06:57:35.775Z,76.00
2019-02-02T06:58:35.694Z,75.50
2019-02-02T06:59:35.657Z,72.00
2019-02-02T07:00:35.664Z,69.10
2019-02-02T07:01:35.634Z,67.10
2019-02-02T07:02:35.901Z,69.60
2019-02-02T07:03:35.624Z,79.50
2019-02-02T07:04:35.581Z,72.30
2019-02-02T07:05:35.595Z,69.30
2019-02-02T07:06:35.702Z,73.50
2019-02-02T07:07:35.685Z,78.00
2019-02-02T07:08:35.543Z,72.70
2019-02-02T07:09:35.591Z,90.20
2019-02-02T07:10:35.549Z,82.20
2019-02-02T07:11:35.523Z,80.00
2019-02-02T07:12:35.507Z,90.00
2019-02-02T07:13:36.072Z,78.90
2019-02-02T07:14:35.524Z,75.90
2019-02-02T07:15:35.497Z,91.70
2019-02-02T07:16:35.461Z,70.10
2019-02-02T07:17:35.454Z,102.20
2019-02-02T07:18:35.468Z,79.00
2019-02-02T07:19:35.516Z,130.40
2019-02-02T07:20:35.422Z,87.10
2019-02-02T07:21:35.698Z,78.40
2019-02-02T07:22:35.415Z,95.10
2019-02-02T07:23:35.449Z,167.00
2019-02-02T07:24:35.547Z,118.80
2019-02-02T07:25:35.395Z,136.20
2019-02-02T07:26:35.761Z,127.40
2019-02-02T07:27:35.338Z,160.20
2019-02-02T07:28:35.449Z,154.80
2019-02-02T07:29:35.500Z,110.60
2019-02-02T07:30:35.380Z,112.90
2019-02-02T07:31:35.365Z,112.00
2019-02-02T07:32:35.311Z,148.60
2019-02-02T07:33:35.299Z,73.40
2019-02-02T07:34:35.276Z,83.00
2019-02-02T07:35:35.350Z,108.50
2019-02-02T07:36:35.300Z,71.60
2019-02-02T07:37:35.246Z,69.90
2019-02-02T07:38:35.230Z,88.20
2019-02-02T07:39:35.221Z,79.40
2019-02-02T07:40:35.205Z,70.20
2019-02-02T07:41:35.216Z,66.80
2019-02-02T07:42:35.384Z,68.60
2019-02-02T07:43:35.364Z,64.30
2019-02-02T07:44:35.251Z,91.30
2019-02-02T07:45:35.163Z,101.20
2019-02-02T07:46:35.169Z,110.40
2019-02-02T07:47:35.185Z,128.40
2019-02-02T07:48:35.362Z,139.50
2019-02-02T07:49:35.110Z,103.20
2019-02-02T07:50:35.144Z,76.20
2019-02-02T07:51:35.183Z,150.50
2019-02-02T07:52:35.105Z,62.10
2019-02-02T07:53:35.079Z,70.50
2019-02-02T07:54:35.301Z,86.10
2019-02-02T07:55:35.052Z,65.40
2019-02-02T07:56:35.059Z,81.10
2019-02-02T07:57:35.040Z,91.10
2019-02-02T07:58:35.033Z,68.10
2019-02-02T07:59:35.038Z,63.70
2019-02-02T08:00:40.940Z,58.30
2019-02-02T08:01:36.012Z,61.90
2019-02-02T08:02:35.005Z,59.00
2019-02-02T08:03:34.959Z,88.10
2019-02-02T08:04:34.979Z,124.00
2019-02-02T08:05:34.985Z,79.70
2019-02-02T08:06:35.579Z,98.20
2019-02-02T08:07:34.965Z,103.00
2019-02-02T08:08:34.925Z,93.80
2019-02-02T08:09:34.981Z,133.60
2019-02-02T08:10:34.931Z,84.00
2019-02-02T08:11:34.881Z,115.00
2019-02-02T08:12:34.900Z,99.70
2019-02-02T08:13:34.960Z,155.00
2019-02-02T08:14:34.845Z,109.00
2019-02-02T08:15:35.714Z,104.50
2019-02-02T08:16:34.840Z,71.70
2019-02-02T08:17:34.865Z,103.40
2019-02-02T08:18:34.832Z,70.20
2019-02-02T08:19:34.797Z,75.80
2019-02-02T08:20:34.782Z,79.60
2019-02-02T08:21:34.778Z,98.10
2019-02-02T08:22:34.761Z,87.20
2019-02-02T08:23:34.852Z,96.70
2019-02-02T08:24:34.872Z,103.40
2019-02-02T08:25:34.726Z,124.70
2019-02-02T08:26:34.868Z,107.40
2019-02-02T08:27:34.735Z,97.70
2019-02-02T08:28:34.752Z,101.90
2019-02-02T08:29:34.719Z,118.50
2019-02-02T08:30:35.915Z,95.70
2019-02-02T08:31:34.720Z,97.80
2019-02-02T08:32:34.763Z,81.40
2019-02-02T08:33:34.676Z,71.20
2019-02-02T08:34:34.634Z,83.30
2019-02-02T08:35:34.626Z,97.90
2019-02-02T08:36:34.638Z,76.90
2019-02-02T08:37:34.710Z,83.10
2019-02-02T08:38:34.678Z,77.20
2019-02-02T08:39:34.648Z,93.50
2019-02-02T08:40:34.568Z,73.70
2019-02-02T08:41:34.587Z,65.70
2019-02-02T08:42:34.551Z,63.60
2019-02-02T08:43:34.595Z,59.70
2019-02-02T08:44:34.529Z,53.80
2019-02-02T08:45:34.695Z,62.30
2019-02-02T08:46:34.903Z,58.40
2019-02-02T08:47:34.506Z,62.60
2019-02-02T08:48:34.487Z,84.20
2019-02-02T08:49:34.730Z,66.60
2019-02-02T08:50:34.645Z,73.30
2019-02-02T08:51:34.491Z,69.30
2019-02-02T08:52:34.570Z,66.80
2019-02-02T08:53:34.572Z,69.30
2019-02-02T08:54:34.457Z,80.60
2019-02-02T08:55:34.501Z,69.80
2019-02-02T08:56:34.431Z,85.90
2019-02-02T08:57:34.481Z,74.20
2019-02-02T08:58:34.409Z,81.00
2019-02-02T08:59:34.461Z,63.30
2019-02-02T09:00:34.409Z,67.40
2019-02-02T09:01:34.473Z,73.40
2019-02-02T09:02:34.334Z,61.30
2019-02-02T09:03:34.412Z,64.80
2019-02-02T09:04:34.437Z,64.90
2019-02-02T09:05:34.432Z,60.60
2019-02-02T09:06:39.146Z,52.80
2019-02-02T09:07:38.208Z,48.80
2019-02-02T09:08:34.291Z,52.10
2019-02-02T09:09:34.302Z,50.30
2019-02-02T09:10:34.305Z,47.90
2019-02-02T09:11:34.326Z,53.90
2019-02-02T09:12:34.292Z,50.60
2019-02-02T09:13:36.741Z,43.60
2019-02-02T09:14:34.258Z,47.00
2019-02-02T09:15:34.305Z,51.70
2019-02-02T09:16:34.216Z,52.00
2019-02-02T09:17:34.209Z,47.30
2019-02-02T09:18:34.167Z,42.70
2019-02-02T09:19:34.232Z,48.90
2019-02-02T09:20:34.160Z,48.90
2019-02-02T09:21:34.170Z,42.20
2019-02-02T09:22:34.117Z,37.60
2019-02-02T09:23:34.163Z,42.60
2019-02-02T09:24:34.209Z,38.40
2019-02-02T09:25:34.095Z,37.70
2019-02-02T09:26:34.104Z,41.00
2019-02-02T09:27:34.167Z,38.10
2019-02-02T09:28:34.107Z,39.10
2019-02-02T09:29:34.088Z,38.20
2019-02-02T09:30:34.122Z,36.80
2019-02-02T09:31:34.165Z,39.50
2019-02-02T09:32:34.027Z,36.20
2019-02-02T09:33:34.016Z,33.20
2019-02-02T09:34:34.016Z,42.60
2019-02-02T09:35:33.982Z,38.80
2019-02-02T09:36:33.996Z,39.40
2019-02-02T09:37:33.995Z,36.70
2019-02-02T09:38:33.950Z,45.00
2019-02-02T09:39:33.937Z,39.00
2019-02-02T09:40:34.016Z,36.40
2019-02-02T09:41:34.119Z,38.90
2019-02-02T09:42:33.918Z,41.20
2019-02-02T09:43:33.924Z,42.90
2019-02-02T09:44:33.883Z,41.90
2019-02-02T09:45:33.886Z,40.10
2019-02-02T09:46:33.871Z,43.50
2019-02-02T09:47:33.905Z,44.00
2019-02-02T09:48:33.969Z,44.20
2019-02-02T09:49:33.856Z,41.70
2019-02-02T09:50:33.867Z,41.00
2019-02-02T09:51:33.812Z,44.30
2019-02-02T09:52:33.839Z,48.40
2019-02-02T09:53:33.799Z,47.40
2019-02-02T09:54:33.791Z,37.40
2019-02-02T09:55:33.774Z,39.40
2019-02-02T09:56:33.771Z,39.10
2019-02-02T09:57:36.719Z,43.90
2019-02-02T09:58:33.756Z,40.50
2019-02-02T09:59:33.724Z,42.40
2019-02-02T10:00:33.727Z,39.00
2019-02-02T10:01:33.721Z,41.20
2019-02-02T10:02:33.694Z,41.80
2019-02-02T10:03:33.714Z,38.30
2019-02-02T10:04:33.679Z,36.70
2019-02-02T10:05:33.691Z,38.50
2019-02-02T10:06:33.658Z,41.80
2019-02-02T10:07:33.651Z,39.40
2019-02-02T10:08:33.663Z,40.50
2019-02-02T10:09:33.644Z,35.60
2019-02-02T10:10:33.631Z,36.60
2019-02-02T10:11:34.170Z,36.40
2019-02-02T10:12:33.585Z,39.00
2019-02-02T10:13:34.735Z,38.30
2019-02-02T10:14:33.575Z,41.60
2019-02-02T10:15:33.576Z,39.50
2019-02-02T10:16:33.541Z,44.90
2019-02-02T10:17:33.535Z,40.10
2019-02-02T10:18:33.549Z,33.80
2019-02-02T10:19:33.515Z,36.20
2019-02-02T10:20:33.500Z,38.10
2019-02-02T10:21:33.494Z,35.00
2019-02-02T10:22:33.499Z,33.50
2019-02-02T10:23:33.490Z,34.60
2019-02-02T10:24:33.511Z,36.30
2019-02-02T10:25:33.451Z,36.60
2019-02-02T10:26:33.449Z,37.90
2019-02-02T10:27:33.452Z,46.10
2019-02-02T10:28:33.432Z,40.20
2019-02-02T10:29:33.454Z,38.50
2019-02-02T10:30:33.458Z,39.20
2019-02-02T10:31:39.612Z,40.60
2019-02-02T10:32:34.377Z,37.80
2019-02-02T10:33:33.386Z,39.80
2019-02-02T10:34:33.409Z,41.20
2019-02-02T10:35:33.356Z,39.90
2019-02-02T10:36:33.338Z,40.70
2019-02-02T10:37:33.356Z,36.20
2019-02-02T10:38:33.318Z,41.20
2019-02-02T10:39:33.446Z,42.20
2019-02-02T10:40:33.318Z,39.90
2019-02-02T10:41:33.280Z,42.20
2019-02-02T10:42:33.301Z,47.50
2019-02-02T10:43:33.270Z,41.10
2019-02-02T10:44:33.283Z,38.90
2019-02-02T10:45:33.270Z,40.10
2019-02-02T10:46:33.251Z,42.80
2019-02-02T10:47:33.228Z,40.40
2019-02-02T10:48:33.202Z,35.30
2019-02-02T10:49:33.201Z,41.00
2019-02-02T10:50:33.189Z,42.00
2019-02-02T10:51:33.200Z,39.50
2019-02-02T10:52:33.236Z,43.50
2019-02-02T10:53:33.154Z,43.00
2019-02-02T10:54:33.203Z,38.60
2019-02-02T10:55:33.152Z,41.00
2019-02-02T10:56:33.150Z,39.80
2019-02-02T10:57:33.288Z,45.00
2019-02-02T10:58:33.098Z,45.00
2019-02-02T10:59:33.106Z,40.50
2019-02-02T11:00:33.088Z,45.10
2019-02-02T11:01:33.104Z,52.10
2019-02-02T11:02:33.066Z,52.10
2019-02-02T11:03:33.049Z,46.50
2019-02-02T11:04:33.108Z,49.60
2019-02-02T11:05:33.021Z,57.40
2019-02-02T11:06:33.131Z,63.10
2019-02-02T11:07:33.101Z,54.10
2019-02-02T11:08:32.993Z,54.20
2019-02-02T11:09:32.992Z,53.30
2019-02-02T11:10:33.126Z,53.40
2019-02-02T11:11:33.254Z,51.20
2019-02-02T11:12:32.971Z,47.80
2019-02-02T11:13:32.948Z,54.00
2019-02-02T11:14:32.943Z,49.90
2019-02-02T11:15:32.973Z,45.00
2019-02-02T11:16:33.045Z,44.40
2019-02-02T11:17:32.974Z,42.70
2019-02-02T11:18:32.940Z,44.70
2019-02-02T11:19:33.074Z,40.90
2019-02-02T11:20:32.994Z,46.10
2019-02-02T11:21:32.937Z,48.80
2019-02-02T11:22:32.890Z,43.20
2019-02-02T11:23:32.997Z,47.90
2019-02-02T11:24:33.018Z,45.10
2019-02-02T11:25:32.977Z,42.00
2019-02-02T11:26:32.922Z,46.70
2019-02-02T11:27:32.859Z,44.70
2019-02-02T11:28:33.013Z,44.80
2019-02-02T11:29:32.931Z,43.20
2019-02-02T11:30:32.907Z,45.60
2019-02-02T11:31:32.803Z,44.90
2019-02-02T11:32:32.750Z,44.40
2019-02-02T11:33:32.750Z,44.60
2019-02-02T11:34:32.718Z,46.50
2019-02-02T11:35:32.713Z,51.20
2019-02-02T11:36:32.772Z,46.70
2019-02-02T11:37:32.774Z,43.70
2019-02-02T11:38:32.712Z,44.20
2019-02-02T11:39:32.678Z,44.20
2019-02-02T11:40:32.707Z,44.90
2019-02-02T11:41:33.790Z,47.90
2019-02-02T11:42:32.678Z,44.00
2019-02-02T11:43:32.955Z,45.60
2019-02-02T11:44:32.641Z,46.20
2019-02-02T11:45:32.705Z,52.00
2019-02-02T11:46:32.695Z,42.90
2019-02-02T11:47:32.628Z,51.20
2019-02-02T11:48:32.597Z,48.50
2019-02-02T11:49:32.626Z,46.70
2019-02-02T11:50:32.570Z,46.20
2019-02-02T11:51:32.537Z,48.80
2019-02-02T11:52:32.638Z,49.40
2019-02-02T11:53:32.538Z,50.30
2019-02-02T11:54:32.610Z,47.60
2019-02-02T11:55:32.495Z,48.40
2019-02-02T11:56:32.547Z,45.40
2019-02-02T11:57:32.498Z,46.50
2019-02-02T11:58:32.470Z,47.70
2019-02-02T11:59:32.565Z,50.50
2019-02-02T12:00:32.672Z,48.50
2019-02-02T12:01:32.491Z,46.90
2019-02-02T12:02:32.450Z,50.20
2019-02-02T12:03:32.434Z,48.40
2019-02-02T12:04:32.459Z,55.00
2019-02-02T12:05:32.394Z,52.40
2019-02-02T12:06:32.426Z,58.90
2019-02-02T12:07:32.410Z,52.10
2019-02-02T12:08:32.399Z,50.60
2019-02-02T12:09:32.433Z,53.70
2019-02-02T12:10:33.854Z,61.20
2019-02-02T12:11:32.341Z,57.30
2019-02-02T12:12:32.431Z,53.00
2019-02-02T12:13:32.381Z,52.30
2019-02-02T12:14:32.286Z,48.00
2019-02-02T12:15:32.309Z,46.60
2019-02-02T12:16:32.293Z,50.00
2019-02-02T12:17:32.294Z,54.70
2019-02-02T12:18:32.279Z,45.80
2019-02-02T12:19:32.329Z,45.20
2019-02-02T12:20:33.253Z,49.70
2019-02-02T12:21:32.239Z,46.90
2019-02-02T12:22:32.215Z,49.30
2019-02-02T12:23:32.228Z,44.80
2019-02-02T12:24:32.281Z,51.40
2019-02-02T12:25:32.175Z,45.30
2019-02-02T12:26:32.216Z,46.90
2019-02-02T12:27:32.190Z,52.10
2019-02-02T12:28:32.257Z,76.20
2019-02-02T12:29:32.180Z,71.30
2019-02-02T12:30:32.264Z,66.80
2019-02-02T12:31:32.133Z,55.10
2019-02-02T12:32:32.116Z,48.80
2019-02-02T12:33:32.190Z,47.90
2019-02-02T12:34:32.080Z,47.90
2019-02-02T12:35:32.168Z,44.00
2019-02-02T12:36:32.193Z,46.00
2019-02-02T12:37:32.105Z,44.40
2019-02-02T12:38:32.249Z,42.30
2019-02-02T12:39:32.099Z,38.50
2019-02-02T12:40:32.025Z,41.80
2019-02-02T12:41:32.069Z,46.10
2019-02-02T12:42:32.011Z,42.20
2019-02-02T12:43:32.113Z,42.60
2019-02-02T12:44:32.022Z,40.30
2019-02-02T12:45:31.963Z,41.90
2019-02-02T12:46:32.025Z,39.70
2019-02-02T12:47:32.010Z,37.70
2019-02-02T12:48:32.527Z,42.90
2019-02-02T12:49:31.938Z,45.70
2019-02-02T12:50:31.973Z,41.00